createdAt,value
2023-09-07T00:01:28.051Z,20.20
2023-09-07T00:03:56.571Z,20.22
2023-09-07T00:06:24.912Z,20.22
2023-09-07T00:08:52.960Z,20.21
2023-09-07T00:11:21.047Z,20.19
2023-09-07T00:13:49.114Z,20.17
2023-09-07T00:16:17.285Z,20.14
2023-09-07T00:18:46.775Z,20.16
2023-09-07T00:21:14.970Z,20.14
2023-09-07T00:23:43.091Z,20.12
2023-09-07T00:26:13.522Z,20.09
2023-09-07T00:28:42.252Z,20.08
2023-09-07T00:31:10.350Z,20.11
2023-09-07T00:33:38.448Z,20.09
2023-09-07T00:36:08.090Z,20.08
2023-09-07T00:38:36.183Z,20.03
2023-09-07T00:41:04.247Z,20.06
2023-09-07T00:43:32.353Z,19.97
2023-09-07T00:46:00.517Z,19.89
2023-09-07T00:48:29.427Z,19.81
2023-09-07T00:50:57.777Z,19.79
2023-09-07T00:53:28.789Z,19.77
2023-09-07T00:55:58.799Z,19.80
2023-09-07T00:58:27.288Z,19.79
2023-09-07T01:00:56.370Z,19.84
2023-09-07T01:03:24.605Z,19.86
2023-09-07T01:06:00.433Z,19.88
2023-09-07T01:08:38.753Z,19.87
2023-09-07T01:11:16.084Z,19.87
2023-09-07T01:13:45.093Z,19.83
2023-09-07T01:16:14.386Z,19.81
2023-09-07T01:18:43.573Z,19.77
2023-09-07T01:21:39.146Z,19.75
2023-09-07T01:24:10.779Z,19.69
2023-09-07T01:26:40.224Z,19.64
2023-09-07T01:29:10.366Z,19.59
2023-09-07T01:31:39.264Z,19.58
2023-09-07T01:34:08.375Z,19.52
2023-09-07T01:36:38.373Z,19.44
2023-09-07T01:39:07.912Z,19.37
2023-09-07T01:41:36.653Z,19.37
2023-09-07T01:44:05.929Z,19.30
2023-09-07T01:46:34.191Z,19.24
2023-09-07T01:49:02.475Z,19.26
2023-09-07T01:51:30.935Z,19.27
2023-09-07T01:54:00.403Z,19.23
2023-09-07T01:56:28.799Z,19.23
2023-09-07T01:58:56.966Z,19.21
2023-09-07T02:01:27.545Z,19.24
2023-09-07T02:03:55.873Z,19.25
2023-09-07T02:06:24.228Z,19.27
2023-09-07T02:08:52.450Z,19.28
2023-09-07T02:11:22.075Z,19.35
2023-09-07T02:13:51.531Z,19.34
2023-09-07T02:16:20.230Z,19.28
2023-09-07T02:18:52.194Z,19.32
2023-09-07T02:21:20.316Z,19.35
2023-09-07T02:23:49.892Z,19.39
2023-09-07T02:26:18.163Z,19.35
2023-09-07T02:28:47.643Z,19.37
2023-09-07T02:31:15.908Z,19.38
2023-09-07T02:33:44.075Z,19.41
2023-09-07T02:36:12.367Z,19.43
2023-09-07T02:38:40.583Z,19.39
2023-09-07T02:41:08.846Z,19.35
2023-09-07T02:43:37.011Z,19.35
2023-09-07T02:46:06.595Z,19.29
2023-09-07T02:48:35.091Z,19.24
2023-09-07T02:51:04.429Z,19.25
2023-09-07T02:53:33.001Z,19.20
2023-09-07T02:56:03.246Z,19.14
2023-09-07T02:58:32.041Z,19.10
2023-09-07T03:01:00.435Z,19.06
2023-09-07T03:03:30.889Z,19.00
2023-09-07T03:05:59.396Z,18.93
2023-09-07T03:08:27.552Z,18.98
2023-09-07T03:10:55.649Z,18.99
2023-09-07T03:13:23.889Z,18.92
2023-09-07T03:15:56.006Z,18.92
2023-09-07T03:18:24.432Z,18.94
2023-09-07T03:20:59.378Z,18.94
2023-09-07T03:23:29.653Z,18.87
2023-09-07T03:26:00.197Z,18.89
2023-09-07T03:28:29.814Z,18.87
2023-09-07T03:30:58.514Z,18.87
2023-09-07T03:33:26.925Z,18.91
2023-09-07T03:35:59.882Z,18.95
2023-09-07T03:38:28.199Z,18.95
2023-09-07T03:40:56.611Z,18.92
2023-09-07T03:43:25.855Z,18.90
2023-09-07T03:45:54.220Z,18.91
2023-09-07T03:48:22.455Z,18.88
2023-09-07T03:50:50.634Z,18.86
2023-09-07T03:53:20.401Z,18.87
2023-09-07T03:55:48.825Z,18.82
2023-09-07T03:58:19.074Z,18.79
2023-09-07T04:00:47.307Z,18.75
2023-09-07T04:03:15.943Z,18.72
2023-09-07T04:05:44.421Z,18.66
2023-09-07T04:08:13.449Z,18.67
2023-09-07T04:10:43.922Z,18.69
2023-09-07T04:13:12.094Z,18.61
2023-09-07T04:15:45.029Z,18.68
2023-09-07T04:18:13.947Z,18.74
2023-09-07T04:20:42.231Z,18.71
2023-09-07T04:23:10.592Z,18.67
2023-09-07T04:25:39.840Z,18.73
2023-09-07T04:28:10.231Z,18.71
2023-09-07T04:30:40.238Z,18.70
2023-09-07T04:33:08.538Z,18.65
2023-09-07T04:35:38.403Z,18.61
2023-09-07T04:38:06.699Z,18.60
2023-09-07T04:40:34.891Z,18.64
2023-09-07T04:43:03.020Z,18.61
2023-09-07T04:45:32.651Z,18.59
2023-09-07T04:48:00.857Z,18.57
2023-09-07T04:50:29.011Z,18.50
2023-09-07T04:52:57.318Z,18.49
2023-09-07T04:55:25.549Z,18.51
2023-09-07T04:57:53.763Z,18.48
2023-09-07T05:00:22.078Z,18.44
2023-09-07T05:02:51.834Z,18.46
2023-09-07T05:05:20.089Z,18.50
2023-09-07T05:07:48.267Z,18.53
2023-09-07T05:10:17.722Z,18.61
2023-09-07T05:12:45.925Z,18.67
2023-09-07T05:15:14.147Z,18.64
2023-09-07T05:17:42.370Z,18.63
2023-09-07T05:20:13.410Z,18.58
2023-09-07T05:22:42.195Z,18.48
2023-09-07T05:25:11.431Z,18.38
2023-09-07T05:27:40.364Z,18.30
2023-09-07T05:30:09.574Z,18.22
2023-09-07T05:32:37.905Z,18.16
2023-09-07T05:35:06.813Z,18.15
2023-09-07T05:37:36.481Z,18.11
2023-09-07T05:40:05.626Z,18.06
2023-09-07T05:42:35.324Z,18.08
2023-09-07T05:45:06.850Z,18.07
2023-09-07T05:47:37.049Z,18.16
2023-09-07T05:50:09.210Z,18.10
2023-09-07T05:52:38.885Z,18.10
2023-09-07T05:55:09.105Z,18.15
2023-09-07T05:57:37.353Z,18.16
2023-09-07T06:00:07.138Z,18.20
2023-09-07T06:02:41.946Z,18.13
2023-09-07T06:05:12.211Z,18.19
2023-09-07T06:07:42.439Z,18.26
2023-09-07T06:10:11.934Z,18.34
2023-09-07T06:12:40.593Z,18.40
2023-09-07T06:15:11.645Z,18.49
2023-09-07T06:17:40.115Z,18.50
2023-09-07T06:20:11.492Z,18.53
2023-09-07T06:22:39.811Z,18.58
2023-09-07T06:25:10.749Z,18.63
2023-09-07T06:27:39.180Z,18.68
2023-09-07T06:30:10.808Z,18.79
2023-09-07T06:32:41.551Z,18.79
2023-09-07T06:35:11.505Z,18.87
2023-09-07T06:37:41.831Z,18.92
2023-09-07T06:40:14.613Z,19.02
2023-09-07T06:42:43.790Z,19.09
2023-09-07T06:45:16.601Z,19.18
2023-09-07T06:47:44.835Z,19.24
2023-09-07T06:50:13.573Z,19.29
2023-09-07T06:52:41.976Z,19.37
2023-09-07T06:55:12.313Z,19.49
2023-09-07T06:57:40.750Z,19.58
2023-09-07T07:00:11.452Z,19.61
2023-09-07T07:02:39.869Z,19.66
2023-09-07T07:05:10.069Z,19.73
2023-09-07T07:07:39.123Z,19.79
2023-09-07T07:10:11.879Z,19.85
2023-09-07T07:12:42.617Z,19.94
2023-09-07T07:15:13.014Z,20.04
2023-09-07T07:17:41.359Z,20.08
2023-09-07T07:20:11.784Z,20.19
2023-09-07T07:22:40.241Z,20.33
2023-09-07T07:25:09.595Z,20.41
2023-09-07T07:27:38.200Z,20.53
2023-09-07T07:30:09.214Z,20.60
2023-09-07T07:32:37.967Z,20.71
2023-09-07T07:35:07.866Z,20.82
2023-09-07T07:37:36.261Z,20.92
2023-09-07T07:40:07.830Z,21.02
2023-09-07T07:42:36.207Z,21.17
2023-09-07T07:45:04.885Z,21.35
2023-09-07T07:47:34.421Z,21.28
2023-09-07T07:50:03.057Z,21.26
2023-09-07T07:52:31.833Z,21.20
2023-09-07T07:55:00.238Z,21.33
2023-09-07T07:57:28.361Z,21.37
2023-09-07T07:59:57.799Z,21.50
2023-09-07T08:02:26.162Z,21.56
2023-09-07T08:04:55.808Z,21.74
2023-09-07T08:07:24.247Z,21.83
2023-09-07T08:09:53.064Z,21.97
2023-09-07T08:12:21.562Z,21.91
2023-09-07T08:14:49.855Z,21.96
2023-09-07T08:17:18.327Z,21.96
2023-09-07T08:19:48.929Z,21.95
2023-09-07T08:22:19.675Z,22.08
2023-09-07T08:24:48.323Z,22.20
2023-09-07T08:27:19.342Z,22.44
2023-09-07T08:29:52.760Z,22.52
2023-09-07T08:32:22.324Z,22.54
2023-09-07T08:34:50.532Z,22.61
2023-09-07T08:37:23.765Z,22.69
2023-09-07T08:39:53.414Z,22.77
2023-09-07T08:42:21.721Z,23.04
2023-09-07T08:44:52.949Z,23.09
2023-09-07T08:47:22.038Z,23.05
2023-09-07T08:49:51.034Z,23.09
2023-09-07T08:52:23.144Z,23.17
2023-09-07T08:54:52.254Z,23.22
2023-09-07T08:57:22.960Z,23.29
2023-09-07T08:59:51.861Z,23.31
2023-09-07T09:02:20.100Z,23.34
2023-09-07T09:04:48.497Z,23.39
2023-09-07T09:07:16.794Z,23.54
2023-09-07T09:09:46.422Z,23.64
2023-09-07T09:12:15.309Z,23.86
2023-09-07T09:15:09.592Z,23.87
2023-09-07T09:18:18.040Z,24.13
2023-09-07T09:20:50.338Z,24.26
2023-09-07T09:23:18.562Z,24.40
2023-09-07T09:25:49.739Z,24.38
2023-09-07T09:28:17.928Z,24.60
2023-09-07T09:30:46.267Z,24.79
2023-09-07T09:33:14.875Z,24.87
2023-09-07T09:35:45.273Z,25.01
2023-09-07T09:38:16.284Z,25.11
2023-09-07T09:40:44.594Z,25.14
2023-09-07T09:43:15.148Z,25.12
2023-09-07T09:45:43.775Z,25.08
2023-09-07T09:48:13.178Z,25.05
2023-09-07T09:50:44.012Z,25.05
2023-09-07T09:53:17.047Z,25.14
2023-09-07T09:55:45.622Z,25.29
2023-09-07T09:58:15.548Z,25.35
2023-09-07T10:00:47.189Z,25.33
2023-09-07T10:03:21.266Z,25.47
2023-09-07T10:05:49.473Z,25.42
2023-09-07T10:08:21.146Z,25.49
2023-09-07T10:10:50.602Z,25.53
2023-09-07T10:13:33.204Z,25.59
2023-09-07T10:16:08.674Z,25.56
2023-09-07T10:18:38.455Z,25.50
2023-09-07T10:21:07.936Z,25.58
2023-09-07T10:23:42.338Z,25.54
2023-09-07T10:26:14.864Z,25.63
2023-09-07T10:28:46.093Z,25.68
2023-09-07T10:31:17.297Z,25.76
2023-09-07T10:33:46.340Z,25.75
2023-09-07T10:36:47.795Z,25.79
2023-09-07T10:39:19.427Z,25.79
2023-09-07T10:41:49.045Z,25.77
2023-09-07T10:44:27.133Z,25.80
2023-09-07T10:46:55.439Z,25.92
2023-09-07T10:49:23.709Z,25.95
2023-09-07T10:51:52.269Z,25.90
2023-09-07T10:54:25.125Z,25.94
2023-09-07T10:56:53.566Z,25.96
2023-09-07T10:59:23.127Z,25.96
2023-09-07T11:01:51.869Z,26.00
2023-09-07T11:04:21.504Z,26.12
2023-09-07T11:06:51.154Z,26.16
2023-09-07T11:09:22.532Z,26.23
2023-09-07T11:11:50.757Z,26.20
2023-09-07T11:14:19.090Z,26.23
2023-09-07T11:16:48.640Z,26.33
2023-09-07T11:19:20.139Z,26.27
2023-09-07T11:21:48.366Z,26.32
2023-09-07T11:24:17.592Z,26.47
2023-09-07T11:26:46.582Z,26.50
2023-09-07T11:29:17.219Z,26.58
2023-09-07T11:31:46.413Z,26.55
2023-09-07T11:34:17.357Z,26.53
2023-09-07T11:36:45.912Z,26.51
2023-09-07T11:39:14.259Z,26.62
2023-09-07T11:41:44.009Z,26.76
2023-09-07T11:44:13.612Z,26.70
2023-09-07T11:46:42.570Z,26.69
2023-09-07T11:49:11.233Z,26.80
2023-09-07T11:51:40.838Z,26.87
2023-09-07T11:54:09.186Z,26.89
2023-09-07T11:56:40.960Z,26.96
2023-09-07T11:59:09.249Z,26.83
2023-09-07T12:01:37.569Z,26.80
2023-09-07T12:04:07.067Z,26.85
2023-09-07T12:06:35.395Z,26.93
2023-09-07T12:09:10.262Z,27.12
2023-09-07T12:11:38.572Z,27.09
2023-09-07T12:14:06.969Z,27.01
2023-09-07T12:16:35.402Z,27.08
2023-09-07T12:19:03.727Z,27.12
2023-09-07T12:21:31.861Z,27.12
2023-09-07T12:24:00.059Z,27.18
2023-09-07T12:26:29.529Z,27.11
2023-09-07T12:28:57.644Z,27.16
2023-09-07T12:31:25.905Z,27.14
2023-09-07T12:33:54.315Z,27.25
2023-09-07T12:36:22.936Z,27.18
2023-09-07T12:38:51.307Z,27.25
2023-09-07T12:41:19.601Z,27.25
2023-09-07T12:43:49.053Z,27.17
2023-09-07T12:46:17.316Z,27.43
2023-09-07T12:48:45.618Z,27.29
2023-09-07T12:51:13.810Z,27.37
2023-09-07T12:53:42.128Z,27.33
2023-09-07T12:56:10.332Z,27.31
2023-09-07T12:58:38.591Z,27.41
2023-09-07T13:01:11.250Z,27.33
2023-09-07T13:03:40.370Z,27.35
2023-09-07T13:06:08.709Z,27.41
2023-09-07T13:08:37.129Z,27.37
2023-09-07T13:11:05.318Z,27.37
2023-09-07T13:13:33.657Z,27.45
2023-09-07T13:16:02.228Z,27.57
2023-09-07T13:18:31.781Z,27.50
2023-09-07T13:21:02.068Z,27.44
2023-09-07T13:23:31.351Z,27.48
2023-09-07T13:28:53.792Z,27.35
2023-09-07T13:31:21.962Z,27.47
2023-09-07T13:33:51.801Z,27.45
2023-09-07T13:36:20.005Z,27.50
2023-09-07T13:38:48.160Z,27.55
2023-09-07T13:41:16.485Z,27.56
2023-09-07T13:43:44.609Z,27.60
2023-09-07T13:46:12.948Z,27.57
2023-09-07T13:48:41.247Z,27.64
2023-09-07T13:51:10.901Z,27.65
2023-09-07T13:53:39.102Z,27.59
2023-09-07T13:56:07.347Z,27.67
2023-09-07T13:58:35.535Z,27.66
2023-09-07T14:01:03.881Z,27.63
2023-09-07T14:03:32.395Z,27.75
2023-09-07T14:06:01.136Z,27.64
2023-09-07T14:08:31.690Z,27.67
2023-09-07T14:11:01.020Z,27.74
2023-09-07T14:13:56.244Z,27.72
2023-09-07T14:16:24.733Z,27.70
2023-09-07T14:18:53.082Z,27.66
2023-09-07T14:21:21.241Z,27.68
2023-09-07T14:23:50.683Z,27.75
2023-09-07T14:26:18.812Z,27.76
2023-09-07T14:28:47.096Z,27.75
2023-09-07T14:31:15.817Z,27.73
2023-09-07T14:33:44.024Z,27.67
2023-09-07T14:36:12.338Z,27.74
2023-09-07T14:38:42.457Z,27.79
2023-09-07T14:41:17.130Z,27.84
2023-09-07T14:43:47.946Z,27.73
2023-09-07T14:46:17.364Z,27.65
2023-09-07T14:48:48.999Z,27.66
2023-09-07T14:51:17.333Z,27.75
2023-09-07T14:53:45.957Z,27.80
2023-09-07T14:56:15.763Z,27.77
2023-09-07T14:58:44.030Z,27.80
2023-09-07T15:01:12.346Z,27.76
2023-09-07T15:03:41.639Z,27.85
2023-09-07T15:06:12.900Z,27.77
2023-09-07T15:08:41.856Z,27.79
2023-09-07T15:11:10.183Z,27.74
2023-09-07T15:13:40.629Z,27.70
2023-09-07T15:16:09.453Z,27.74
2023-09-07T15:18:39.941Z,27.82
2023-09-07T15:21:10.024Z,27.80
2023-09-07T15:23:38.320Z,27.79
2023-09-07T15:26:06.802Z,27.72
2023-09-07T15:28:35.190Z,27.72
2023-09-07T15:31:05.479Z,27.78
2023-09-07T15:33:33.703Z,27.68
2023-09-07T15:36:03.565Z,27.84
2023-09-07T15:38:32.974Z,27.69
2023-09-07T15:41:05.718Z,27.78
2023-09-07T15:43:34.813Z,27.71
2023-09-07T15:46:03.453Z,27.79
2023-09-07T15:48:34.433Z,27.71
2023-09-07T15:51:02.892Z,27.77
2023-09-07T15:53:34.748Z,27.74
2023-09-07T15:56:03.758Z,27.70
2023-09-07T15:58:32.310Z,27.71
2023-09-07T16:01:02.258Z,27.68
2023-09-07T16:03:31.907Z,27.64
2023-09-07T16:06:00.189Z,27.71
2023-09-07T16:08:29.381Z,27.69
2023-09-07T16:10:58.269Z,27.58
2023-09-07T16:13:27.066Z,27.62
2023-09-07T16:15:55.225Z,27.58
2023-09-07T16:18:23.511Z,27.60
2023-09-07T16:20:53.091Z,27.54
2023-09-07T16:23:21.298Z,27.58
2023-09-07T16:25:49.830Z,27.54
2023-09-07T16:28:18.160Z,27.56
2023-09-07T16:30:47.450Z,27.53
2023-09-07T16:33:15.719Z,27.62
2023-09-07T16:35:44.002Z,27.48
2023-09-07T16:38:14.845Z,27.50
2023-09-07T16:40:43.020Z,27.45
2023-09-07T16:43:11.149Z,27.41
2023-09-07T16:45:39.397Z,27.34
2023-09-07T16:48:33.504Z,27.32
2023-09-07T16:51:02.475Z,27.24
2023-09-07T16:53:32.718Z,27.26
2023-09-07T16:56:01.027Z,27.18
2023-09-07T16:58:56.920Z,27.17
2023-09-07T17:01:17.883Z,27.12
2023-09-07T17:03:46.289Z,27.23
2023-09-07T17:06:14.643Z,27.17
2023-09-07T17:08:44.207Z,27.09
2023-09-07T17:11:12.483Z,27.02
2023-09-07T17:13:48.209Z,27.01
2023-09-07T17:16:24.409Z,27.06
2023-09-07T17:18:52.574Z,26.96
2023-09-07T17:21:20.863Z,26.93
2023-09-07T17:23:51.410Z,26.88
2023-09-07T17:26:19.725Z,26.83
2023-09-07T17:28:48.021Z,26.76
2023-09-07T17:31:17.226Z,26.72
2023-09-07T17:33:45.335Z,26.64
2023-09-07T17:36:19.029Z,26.61
2023-09-07T17:38:47.316Z,26.53
2023-09-07T17:41:17.092Z,26.50
2023-09-07T17:43:47.915Z,26.43
2023-09-07T17:46:16.130Z,26.34
2023-09-07T17:48:44.637Z,26.29
2023-09-07T17:51:13.141Z,26.22
2023-09-07T17:53:42.414Z,26.10
2023-09-07T17:56:11.728Z,26.01
2023-09-07T17:58:43.833Z,25.94
2023-09-07T18:01:13.944Z,25.86
2023-09-07T18:03:42.896Z,25.79
2023-09-07T18:06:11.836Z,25.71
2023-09-07T18:08:40.799Z,25.62
2023-09-07T18:11:09.114Z,25.50
2023-09-07T18:13:37.369Z,25.39
2023-09-07T18:16:07.117Z,25.30
2023-09-07T18:18:39.147Z,25.12
2023-09-07T18:21:32.408Z,24.92
2023-09-07T18:24:00.834Z,24.82
2023-09-07T18:26:31.144Z,24.77
2023-09-07T18:28:59.694Z,24.74
2023-09-07T18:31:29.322Z,24.66
2023-09-07T18:33:57.656Z,24.54
2023-09-07T18:36:26.004Z,24.50
2023-09-07T18:38:54.164Z,24.40
2023-09-07T18:41:22.340Z,24.44
2023-09-07T18:43:52.079Z,24.50
2023-09-07T18:46:22.258Z,24.54
2023-09-07T18:48:51.787Z,24.62
2023-09-07T18:51:19.995Z,24.67
2023-09-07T18:53:48.108Z,24.72
2023-09-07T18:56:16.404Z,24.77
2023-09-07T18:58:44.650Z,24.80
2023-09-07T19:01:15.867Z,24.84
2023-09-07T19:03:48.319Z,24.78
2023-09-07T19:06:17.994Z,24.85
2023-09-07T19:08:46.880Z,24.85
2023-09-07T19:11:17.070Z,24.87
2023-09-07T19:13:45.500Z,24.83
2023-09-07T19:16:16.260Z,24.77
2023-09-07T19:18:44.645Z,24.70
2023-09-07T19:21:24.065Z,24.63
2023-09-07T19:23:54.491Z,24.55
2023-09-07T19:26:31.791Z,24.54
2023-09-07T19:29:02.061Z,24.50
2023-09-07T19:31:30.614Z,24.44
2023-09-07T19:33:59.761Z,24.36
2023-09-07T19:36:29.426Z,24.26
2023-09-07T19:39:01.340Z,24.31
2023-09-07T19:41:30.330Z,24.32
2023-09-07T19:43:59.424Z,24.34
2023-09-07T19:46:27.903Z,24.27
2023-09-07T19:48:57.122Z,24.15
2023-09-07T19:51:26.220Z,24.12
2023-09-07T19:53:55.602Z,24.06
2023-09-07T19:56:28.182Z,23.93
2023-09-07T19:58:57.231Z,23.85
2023-09-07T20:01:26.204Z,23.85
2023-09-07T20:03:55.995Z,23.85
2023-09-07T20:06:26.746Z,23.78
2023-09-07T20:08:55.732Z,23.76
2023-09-07T20:11:25.544Z,23.77
2023-09-07T20:13:53.964Z,23.87
2023-09-07T20:16:22.361Z,23.81
2023-09-07T20:18:50.597Z,23.72
2023-09-07T20:21:18.727Z,23.73
2023-09-07T20:23:46.911Z,23.69
2023-09-07T20:26:15.054Z,23.78
2023-09-07T20:28:49.163Z,23.89
2023-09-07T20:31:17.764Z,23.93
2023-09-07T20:33:46.036Z,23.92
2023-09-07T20:38:44.562Z,23.85
2023-09-07T20:41:14.571Z,23.79
2023-09-07T20:43:44.284Z,23.77
2023-09-07T20:46:12.581Z,23.67
2023-09-07T20:48:40.923Z,23.56
2023-09-07T20:51:10.193Z,23.48
2023-09-07T20:53:39.211Z,23.32
2023-09-07T20:56:07.370Z,23.20
2023-09-07T20:58:35.334Z,23.14
2023-09-07T21:01:06.117Z,23.13
2023-09-07T21:03:34.465Z,23.16
2023-09-07T21:06:03.029Z,23.14
2023-09-07T21:08:31.483Z,23.11
2023-09-07T21:10:59.723Z,23.11
2023-09-07T21:13:28.116Z,23.05
2023-09-07T21:15:56.292Z,23.01
2023-09-07T21:18:25.957Z,22.95
2023-09-07T21:20:54.229Z,22.90
2023-09-07T21:23:22.451Z,22.83
2023-09-07T21:25:50.677Z,22.77
2023-09-07T21:28:18.903Z,22.71
2023-09-07T21:30:47.171Z,22.66
2023-09-07T21:33:15.468Z,22.64
2023-09-07T21:35:45.100Z,22.66
2023-09-07T21:38:13.481Z,22.60
2023-09-07T21:40:41.961Z,22.49
2023-09-07T21:43:10.266Z,22.44
2023-09-07T21:45:38.578Z,22.36
2023-09-07T21:48:07.817Z,22.33
2023-09-07T21:50:36.860Z,22.26
2023-09-07T21:53:06.575Z,22.22
2023-09-07T21:55:34.869Z,22.15
2023-09-07T21:58:03.307Z,22.12
2023-09-07T22:00:31.671Z,22.04
2023-09-07T22:02:59.955Z,21.99
2023-09-07T22:05:28.631Z,21.95
2023-09-07T22:07:56.903Z,21.93
2023-09-07T22:10:26.849Z,21.92
2023-09-07T22:13:00.063Z,21.55
2023-09-07T22:15:28.598Z,21.29
2023-09-07T22:17:56.860Z,21.45
2023-09-07T22:20:25.658Z,21.50
2023-09-07T22:22:54.148Z,21.51
2023-09-07T22:25:22.368Z,21.57
2023-09-07T22:27:52.295Z,21.56
2023-09-07T22:30:20.873Z,21.56
2023-09-07T22:32:49.180Z,21.39
2023-09-07T22:35:20.870Z,21.42
2023-09-07T22:37:49.094Z,21.42
2023-09-07T22:40:17.496Z,21.42
2023-09-07T22:42:46.001Z,21.38
2023-09-07T22:45:16.229Z,21.36
2023-09-07T22:47:45.168Z,21.38
2023-09-07T22:50:13.482Z,21.36
2023-09-07T22:52:41.721Z,21.28
2023-09-07T22:55:10.659Z,21.27
2023-09-07T22:57:39.541Z,21.28
2023-09-07T23:00:08.462Z,21.30
2023-09-07T23:02:38.155Z,21.33
2023-09-07T23:05:08.040Z,21.33
2023-09-07T23:07:36.240Z,21.29
2023-09-07T23:10:05.149Z,21.27
2023-09-07T23:12:33.468Z,21.28
2023-09-07T23:15:01.679Z,21.22
2023-09-07T23:17:29.934Z,21.16
2023-09-07T23:19:59.739Z,21.11
2023-09-07T23:22:27.982Z,21.07
2023-09-07T23:24:56.243Z,21.02
2023-09-07T23:27:25.996Z,21.02
2023-09-07T23:29:54.310Z,20.99
2023-09-07T23:32:22.982Z,20.95
2023-09-07T23:34:51.147Z,20.99
2023-09-07T23:37:20.738Z,20.94
2023-09-07T23:39:48.997Z,20.88
2023-09-07T23:42:18.196Z,20.86
2023-09-07T23:44:46.429Z,20.82
2023-09-07T23:47:14.594Z,20.80
2023-09-07T23:49:42.781Z,20.78
2023-09-07T23:52:11.709Z,20.75
2023-09-07T23:54:41.779Z,20.66
2023-09-07T23:57:09.927Z,20.66
2023-09-07T23:59:38.148Z,20.60
